Time;durP1;ratioP1;P1;durP2;ratioP2;P2;SDS_P1;SDS_P2;PMS_P1;PMS_P2;Temp;Humidity;BMP_temperature;BMP_pressure;BME280_temperature;BME280_humidity;BME280_pressure;Samples;Min_cycle;Max_cycle;Signal;HPM_P1;HPM_P2
2022/10/16 00:03:04;;;;;;;22.70;13.00;;;;;;;16.17;57.65;99194.43;224895;1238;139113;-64
2022/10/16 00:08:10;;;;;;;23.30;14.40;;;;;;;16.14;57.95;99194.86;224798;1233;138650;-64
2022/10/16 00:13:13;;;;;;;;;;;;;;;16.10;57.97;99192.86;224774;1239;138615;-62
2022/10/16 00:18:16;;;;;;;21.60;16.20;;;;;;;16.04;57.97;99195.32;225089;1238;125912;-62
2022/10/16 00:23:21;;;;;;;22.00;16.20;;;;;;;16.00;58.10;99203.58;225032;1234;138581;-61
2022/10/16 00:28:26;;;;;;;25.80;17.00;;;;;;;15.96;58.51;99209.38;225123;1233;139460;-62
2022/10/16 00:33:30;;;;;;;23.40;15.40;;;;;;;15.97;58.48;99213.81;225018;1236;138795;-61
2022/10/16 00:38:34;;;;;;;24.30;16.80;;;;;;;16.01;58.71;99218.29;225149;1238;139598;-62
2022/10/16 00:43:43;;;;;;;32.50;22.60;;;;;;;16.05;58.99;99217.64;224815;1238;138846;-65
2022/10/16 00:49:03;;;;;;;28.00;22.00;;;;;;;16.07;58.99;99221.02;224669;1234;138480;-64
2022/10/16 00:54:13;;;;;;;34.00;24.50;;;;;;;16.06;58.87;99230.61;224709;1238;138701;-63
2022/10/16 00:59:27;;;;;;;34.70;23.60;;;;;;;16.04;59.06;99226.63;224616;1233;138999;-64
2022/10/16 01:04:37;;;;;;;31.80;22.40;;;;;;;16.03;59.25;99228.54;224777;1240;138711;-64
2022/10/16 01:10:05;;;;;;;37.20;22.90;;;;;;;15.99;59.33;99228.10;224763;1234;138928;-62
2022/10/16 01:15:17;;;;;;;32.00;22.70;;;;;;;15.96;59.50;99235.73;224943;1233;139029;-62
2022/10/16 01:20:47;;;;;;;27.50;19.70;;;;;;;15.93;59.60;99236.38;224973;1234;139665;-63
2022/10/16 01:26:03;;;;;;;24.80;18.10;;;;;;;15.90;59.73;99236.80;224805;1233;138991;-62
2022/10/16 01:31:09;;;;;;;27.40;16.40;;;;;;;15.86;59.88;99229.93;224660;1235;138746;-65
2022/10/16 01:36:19;;;;;;;23.70;15.60;;;;;;;15.88;59.98;99232.80;224617;1229;140474;-62
2022/10/16 01:41:33;;;;;;;20.90;15.20;;;;;;;15.93;59.74;99239.25;224987;1234;139100;-61
2022/10/16 01:46:40;;;;;;;28.00;16.40;;;;;;;15.95;60.09;99238.14;225004;1234;139333;-62
2022/10/16 01:51:49;;;;;;;19.30;14.80;;;;;;;15.96;60.21;99245.36;224577;1234;139064;-62
2022/10/16 01:56:56;;;;;;;20.10;15.10;;;;;;;15.96;59.80;99248.98;224664;1233;139397;-62
2022/10/16 02:02:05;;;;;;;20.80;14.70;;;;;;;15.93;59.91;99253.20;224898;1233;139176;-66
2022/10/16 02:07:12;;;;;;;21.10;14.00;;;;;;;15.87;59.97;99259.49;224766;1237;139173;-66
2022/10/16 02:12:21;;;;;;;;;;;;;;;15.82;59.83;99253.63;224635;1234;139632;-68
2022/10/16 02:17:26;;;;;;;20.90;13.50;;;;;;;15.76;59.87;99253.97;224980;1234;125182;-64
2022/10/16 02:22:39;;;;;;;22.20;15.00;;;;;;;15.70;59.88;99251.60;224987;1233;138536;-62
2022/10/16 02:28:04;;;;;;;20.20;14.20;;;;;;;15.67;60.04;99253.30;224839;1233;138972;-67
2022/10/16 02:33:13;;;;;;;20.20;13.80;;;;;;;15.63;60.15;99254.77;224929;1233;139268;-63
2022/10/16 02:38:18;;;;;;;19.40;14.30;;;;;;;15.59;60.14;99259.60;224652;1234;139471;-65
2022/10/16 02:43:24;;;;;;;21.30;14.20;;;;;;;15.55;60.17;99258.11;225043;1234;139891;-64
2022/10/16 02:48:28;;;;;;;25.50;15.40;;;;;;;15.55;60.27;99257.55;224896;1233;139886;-61
2022/10/16 02:53:31;;;;;;;25.00;14.60;;;;;;;15.62;60.34;99260.65;224941;1234;140743;-61
2022/10/16 02:58:34;;;;;;;24.40;15.30;;;;;;;15.66;60.45;99258.20;224944;1233;139474;-61
2022/10/16 03:03:38;;;;;;;26.00;15.30;;;;;;;15.66;60.50;99256.94;224931;1233;139163;-62
2022/10/16 03:08:42;;;;;;;24.90;15.90;;;;;;;15.64;60.39;99262.59;224846;1239;139561;-61
2022/10/16 03:13:45;;;;;;;24.70;15.60;;;;;;;15.61;60.42;99266.59;224758;1234;140736;-64
2022/10/16 03:18:49;;;;;;;24.10;16.80;;;;;;;15.59;60.60;99264.05;224905;1233;141065;-64
2022/10/16 03:23:52;;;;;;;33.50;16.40;;;;;;;15.56;60.55;99262.19;224950;1233;139107;-64
2022/10/16 03:28:56;;;;;;;30.70;17.80;;;;;;;15.53;60.70;99260.95;224901;1234;140853;-64
2022/10/16 03:33:59;;;;;;;27.10;17.00;;;;;;;15.48;60.58;99266.77;224481;1234;139282;-65
2022/10/16 03:39:02;;;;;;;27.10;17.20;;;;;;;15.44;60.68;99274.52;224988;1234;139066;-66
2022/10/16 03:44:07;;;;;;;29.10;16.40;;;;;;;15.42;60.72;99285.44;225022;1233;139152;-61
2022/10/16 03:49:11;;;;;;;25.00;15.80;;;;;;;15.43;60.84;99293.92;224952;1233;139528;-61
2022/10/16 03:54:15;;;;;;;27.60;16.40;;;;;;;15.46;60.87;99295.69;224973;1237;140081;-61
2022/10/16 03:59:21;;;;;;;24.00;15.90;;;;;;;15.46;60.97;99301.73;225010;1233;139115;-61
2022/10/16 04:04:24;;;;;;;25.50;16.00;;;;;;;15.45;61.02;99309.13;225028;1233;139061;-66
2022/10/16 04:09:29;;;;;;;25.00;16.20;;;;;;;15.44;61.16;99311.23;224974;1234;139171;-65
2022/10/16 04:14:31;;;;;;;25.10;17.20;;;;;;;15.42;61.32;99313.52;224939;1233;138993;-64
2022/10/16 04:19:35;;;;;;;29.20;16.30;;;;;;;15.39;61.39;99321.45;224893;1234;139115;-64
2022/10/16 04:24:38;;;;;;;27.60;16.70;;;;;;;15.36;61.64;99320.21;224953;1234;138893;-67
2022/10/16 04:29:42;;;;;;;25.50;15.60;;;;;;;15.35;61.71;99319.89;225020;1233;139230;-69
2022/10/16 04:34:45;;;;;;;25.10;15.20;;;;;;;15.34;61.97;99321.81;224984;1233;138698;-67
2022/10/16 04:39:48;;;;;;;27.60;14.60;;;;;;;15.36;62.04;99326.77;225050;1234;139980;-62
2022/10/16 04:44:51;;;;;;;24.40;16.30;;;;;;;15.41;62.04;99322.68;224866;1227;138854;-63
2022/10/16 04:49:56;;;;;;;26.50;16.50;;;;;;;15.44;62.02;99324.81;225082;1233;139718;-61
2022/10/16 04:55:02;;;;;;;37.00;21.60;;;;;;;15.42;62.03;99327.81;226901;1246;138935;-61
2022/10/16 05:00:05;;;;;;;;;;;;;;;15.38;61.82;99327.36;226891;1238;139086;-62
2022/10/16 05:05:08;;;;;;;28.00;16.90;;;;;;;15.32;61.88;99335.02;227702;1231;125115;-63
2022/10/16 05:10:11;;;;;;;24.90;15.70;;;;;;;15.24;61.74;99344.54;226935;1249;139537;-62
2022/10/16 05:15:15;;;;;;;23.70;15.10;;;;;;;15.19;61.84;99342.64;226828;1241;139577;-62
2022/10/16 05:20:17;;;;;;;26.90;16.10;;;;;;;15.13;61.77;99341.08;226888;1241;140195;-61
2022/10/16 05:25:21;;;;;;;22.30;14.50;;;;;;;15.09;61.85;99335.84;226925;1247;139136;-62
2022/10/16 05:30:24;;;;;;;19.30;13.40;;;;;;;15.10;61.94;99338.85;226871;1244;139757;-61
2022/10/16 05:35:27;;;;;;;19.10;13.50;;;;;;;15.10;61.92;99347.55;226844;1234;140060;-63
2022/10/16 05:40:30;;;;;;;25.30;18.70;;;;;;;15.10;62.15;99354.55;226648;1235;139110;-61
2022/10/16 05:45:32;;;;;;;24.30;16.30;;;;;;;15.11;62.18;99354.66;226786;1240;138928;-64
2022/10/16 05:50:35;;;;;;;23.50;15.90;;;;;;;15.13;62.07;99357.56;226823;1241;139157;-64
2022/10/16 05:55:38;;;;;;;22.80;15.10;;;;;;;15.12;62.20;99355.83;226806;1236;139436;-60
2022/10/16 06:00:41;;;;;;;24.90;15.60;;;;;;;15.11;62.34;99352.33;226778;1234;139328;-63
2022/10/16 06:05:44;;;;;;;27.40;19.90;;;;;;;15.13;62.49;99355.25;226590;1249;140025;-63
2022/10/16 06:10:47;;;;;;;20.30;14.70;;;;;;;15.18;62.86;99359.82;226789;1234;139986;-64
2022/10/16 06:15:50;;;;;;;21.80;14.10;;;;;;;15.28;62.60;99371.83;226772;1233;139483;-65
2022/10/16 06:20:54;;;;;;;23.70;15.00;;;;;;;15.33;62.68;99382.84;226792;1241;139469;-67
2022/10/16 06:26:05;;;;;;;25.20;16.80;;;;;;;15.39;62.69;99393.63;226792;1243;139268;-64
2022/10/16 06:31:12;;;;;;;28.90;17.00;;;;;;;15.49;62.94;99396.66;227670;1234;139328;-67
2022/10/16 06:36:17;;;;;;;21.60;14.90;;;;;;;15.56;62.98;99407.34;226889;1240;138985;-62
2022/10/16 06:41:22;;;;;;;22.30;15.70;;;;;;;15.63;62.82;99416.86;226767;1234;139604;-65
2022/10/16 06:46:26;;;;;;;24.80;15.40;;;;;;;15.69;62.93;99420.18;226861;1234;140115;-64
2022/10/16 06:51:31;;;;;;;24.40;16.80;;;;;;;15.78;63.09;99427.38;226740;1238;138765;-63
2022/10/16 06:56:34;;;;;;;19.80;14.60;;;;;;;15.91;63.18;99438.16;226700;1238;139135;-62
2022/10/16 07:01:37;;;;;;;26.30;17.20;;;;;;;16.11;63.27;99446.30;227650;1241;140739;-66
2022/10/16 07:06:40;;;;;;;23.30;14.10;;;;;;;16.32;63.23;99442.98;226662;1238;140215;-64
2022/10/16 07:11:43;;;;;;;23.50;13.90;;;;;;;16.50;62.83;99442.77;226772;1238;139917;-64
2022/10/16 07:16:49;;;;;;;27.50;18.40;;;;;;;16.65;62.84;99438.70;226917;1233;139132;-61
2022/10/16 07:21:52;;;;;;;24.70;16.80;;;;;;;16.81;62.89;99439.10;226532;1241;140171;-63
2022/10/16 07:26:54;;;;;;;20.90;13.90;;;;;;;16.95;62.46;99447.25;226689;1244;138937;-63
2022/10/16 07:31:59;;;;;;;19.40;12.30;;;;;;;17.08;62.26;99446.90;227553;1241;139076;-61
2022/10/16 07:37:02;;;;;;;28.70;21.20;;;;;;;17.21;61.82;99451.42;226730;1238;139036;-63
2022/10/16 07:42:05;;;;;;;36.30;27.30;;;;;;;17.36;61.64;99445.69;226755;1233;140141;-63
2022/10/16 07:47:11;;;;;;;11.30;7.90;;;;;;;17.54;60.89;99441.50;227551;1233;139901;-63
2022/10/16 07:52:16;;;;;;;11.30;7.70;;;;;;;17.68;60.51;99447.42;227558;1232;139515;-65
2022/10/16 07:57:19;;;;;;;13.30;7.50;;;;;;;17.82;59.98;99450.75;226815;1238;140195;-63
2022/10/16 08:02:24;;;;;;;11.80;7.50;;;;;;;17.93;59.53;99455.70;226861;1241;138818;-64
2022/10/16 08:07:26;;;;;;;27.40;19.80;;;;;;;18.04;59.15;99456.96;226772;1241;139066;-62
2022/10/16 08:12:30;;;;;;;9.60;7.00;;;;;;;18.16;58.98;99464.83;226669;1240;139741;-63
2022/10/16 08:17:32;;;;;;;22.40;15.80;;;;;;;18.26;58.65;99464.27;226802;1244;138784;-63
2022/10/16 08:22:35;;;;;;;12.10;8.10;;;;;;;18.31;58.38;99472.99;226861;1234;139943;-63
2022/10/16 08:27:38;;;;;;;10.80;6.70;;;;;;;18.36;58.04;99474.89;227573;1236;139458;-62
2022/10/16 08:32:41;;;;;;;10.20;6.70;;;;;;;18.41;57.94;99471.88;226816;1234;138332;-61
2022/10/16 08:37:44;;;;;;;13.70;7.10;;;;;;;18.49;57.80;99477.14;227765;1230;139158;-62
2022/10/16 08:42:53;;;;;;;8.90;6.50;;;;;;;18.57;57.55;99473.58;226841;1249;139087;-61
2022/10/16 08:48:15;;;;;;;9.70;7.10;;;;;;;18.65;57.25;99484.48;226700;1233;138510;-60
2022/10/16 08:53:26;;;;;;;11.00;6.30;;;;;;;18.79;57.15;99484.00;226747;1234;139004;-63
2022/10/16 08:58:30;;;;;;;46.50;22.60;;;;;;;18.96;57.05;99481.10;227651;1231;139205;-63
2022/10/16 09:03:51;;;;;;;28.60;14.90;;;;;;;19.19;59.06;99486.32;227575;1225;139550;-64
2022/10/16 09:09:03;;;;;;;22.10;14.60;;;;;;;19.46;58.41;99484.99;226851;1242;139644;-61
2022/10/16 09:14:53;;;;;;;11.10;7.50;;;;;;;19.63;58.66;99487.56;226833;1241;139237;-63
2022/10/16 09:20:11;;;;;;;10.90;7.00;;;;;;;19.78;57.50;99490.48;226762;1236;138786;-61
2022/10/16 09:25:21;;;;;;;12.30;8.10;;;;;;;19.87;56.98;99497.20;226796;1241;138908;-65
2022/10/16 09:30:29;;;;;;;24.10;13.60;;;;;;;19.96;58.04;99495.63;226966;1241;139284;-62
2022/10/16 09:35:38;;;;;;;20.90;13.60;;;;;;;20.07;57.77;99499.97;227649;1240;138962;-63
2022/10/16 09:40:43;;;;;;;17.90;12.10;;;;;;;20.16;57.02;99500.30;227606;1231;139002;-64
2022/10/16 09:45:56;;;;;;;23.60;16.80;;;;;;;20.21;56.69;99497.60;227598;1241;138983;-64
2022/10/16 09:51:03;;;;;;;19.80;14.70;;;;;;;20.29;57.11;99499.78;226877;1241;139284;-64
2022/10/16 09:56:06;;;;;;;10.30;7.20;;;;;;;20.32;56.82;99499.45;227558;1226;140871;-68
2022/10/16 10:01:15;;;;;;;8.40;7.10;;;;;;;20.35;55.85;99498.68;226844;1241;141090;-63
2022/10/16 10:06:21;;;;;;;10.80;7.40;;;;;;;20.38;56.00;99500.73;226866;1238;138475;-64
2022/10/16 10:11:40;;;;;;;11.30;6.90;;;;;;;20.43;55.52;99503.81;226886;1234;139277;-64
2022/10/16 10:16:43;;;;;;;23.60;17.50;;;;;;;20.49;56.27;99507.02;226716;1241;139455;-65
2022/10/16 10:21:46;;;;;;;14.50;9.00;;;;;;;20.57;57.76;99505.56;226797;1237;139207;-64
2022/10/16 10:27:04;;;;;;;440.00;349.40;;;;;;;20.64;56.84;99506.54;226755;1233;138593;-64
2022/10/16 10:32:28;;;;;;;53.70;40.90;;;;;;;20.76;56.04;99503.88;226791;1241;139715;-64
2022/10/16 10:37:52;;;;;;;30.40;20.30;;;;;;;20.90;57.24;99501.61;226625;1240;139819;-62
2022/10/16 10:43:11;;;;;;;20.00;11.90;;;;;;;21.03;58.17;99502.23;226742;1246;139549;-65
2022/10/16 10:48:29;;;;;;;16.50;9.40;;;;;;;21.17;58.12;99497.71;226854;1241;140034;-62
2022/10/16 10:54:02;;;;;;;12.90;8.60;;;;;;;21.33;57.63;99495.80;227524;1233;139416;-61
2022/10/16 10:59:17;;;;;;;13.30;9.90;;;;;;;21.48;57.05;99489.04;226858;1239;139604;-66
2022/10/16 11:04:47;;;;;;;9.70;6.50;;;;;;;21.60;55.93;99484.86;226750;1238;139285;-65
2022/10/16 11:10:01;;;;;;;12.80;9.30;;;;;;;21.71;55.63;99485.70;226594;1248;138429;-63
2022/10/16 11:15:13;;;;;;;9.50;6.00;;;;;;;21.74;55.27;99484.70;227512;1227;151707;-65
2022/10/16 11:20:25;;;;;;;8.50;5.50;;;;;;;21.82;54.27;99485.08;226766;1249;139242;-64
2022/10/16 11:25:30;;;;;;;42.40;32.20;;;;;;;21.88;54.21;99482.70;226794;1240;139664;-63
2022/10/16 11:30:45;;;;;;;7.60;5.50;;;;;;;21.84;53.96;99483.31;226714;1243;139084;-62
2022/10/16 11:35:58;;;;;;;13.60;8.20;;;;;;;21.79;54.13;99480.58;227545;1227;139083;-64
2022/10/16 11:41:34;;;;;;;10.00;7.40;;;;;;;21.71;54.50;99480.39;226822;1236;139018;-62
2022/10/16 11:46:43;;;;;;;10.40;8.30;;;;;;;21.68;54.05;99481.81;226777;1244;139930;-62
2022/10/16 11:52:20;;;;;;;17.50;10.90;;;;;;;21.64;53.39;99482.08;227514;1226;140527;-64
2022/10/16 11:57:26;;;;;;;13.20;7.90;;;;;;;21.63;53.36;99482.11;226570;1245;138964;-64
2022/10/16 12:02:30;;;;;;;16.00;8.30;;;;;;;21.62;53.00;99481.86;226582;1240;139881;-66
2022/10/16 12:07:42;;;;;;;52.30;38.30;;;;;;;21.65;52.84;99485.58;226746;1236;139197;-64
2022/10/16 12:12:46;;;;;;;13.30;8.10;;;;;;;21.67;52.76;99487.89;226554;1230;139274;-64
2022/10/16 12:17:49;;;;;;;15.80;10.70;;;;;;;21.66;52.94;99486.00;226701;1241;139263;-65
2022/10/16 12:23:07;;;;;;;9.30;6.30;;;;;;;21.60;52.90;99490.10;227652;1234;139207;-62
2022/10/16 12:28:12;;;;;;;50.80;40.80;;;;;;;21.56;52.60;99487.77;226850;1233;138567;-65
2022/10/16 12:33:25;;;;;;;11.30;7.00;;;;;;;21.62;52.58;99485.66;226687;1249;139041;-63
2022/10/16 12:38:51;;;;;;;6.70;5.50;;;;;;;21.69;52.47;99485.89;226679;1240;140409;-65
2022/10/16 12:43:54;;;;;;;7.30;5.60;;;;;;;21.76;51.82;99487.57;226785;1234;140113;-59
2022/10/16 12:49:13;;;;;;;6.80;5.60;;;;;;;21.82;51.77;99489.30;227468;1236;138777;-59
2022/10/16 12:54:49;;;;;;;8.90;5.20;;;;;;;21.84;51.48;99492.27;227648;1241;138652;-64
2022/10/16 13:00:21;;;;;;;6.80;4.90;;;;;;;21.82;50.78;99496.09;226390;1245;138883;-58
2022/10/16 13:05:58;;;;;;;6.30;4.50;;;;;;;21.79;50.70;99498.06;227732;1233;138743;-59
2022/10/16 13:11:43;;;;;;;6.20;4.00;;;;;;;21.76;50.26;99509.89;227643;1233;138935;-59
2022/10/16 13:17:02;;;;;;;6.60;4.40;;;;;;;21.74;50.22;99511.95;226639;1244;138832;-61
2022/10/16 13:22:37;;;;;;;91.80;63.80;;;;;;;21.77;50.15;99515.05;226900;1233;139112;-62
2022/10/16 13:28:01;;;;;;;6.00;4.00;;;;;;;21.81;50.05;99518.65;226708;1241;139314;-61
2022/10/16 13:33:12;;;;;;;6.90;4.20;;;;;;;21.78;49.86;99520.55;227051;1241;139752;-61
2022/10/16 13:38:18;;;;;;;4.60;3.90;;;;;;;21.73;49.68;99529.41;227707;1226;138950;-61
2022/10/16 13:43:36;;;;;;;5.70;4.10;;;;;;;21.65;49.66;99525.08;226796;1249;138988;-63
2022/10/16 13:48:41;;;;;;;6.30;3.90;;;;;;;21.60;49.69;99527.41;226653;1244;138657;-63
2022/10/16 13:53:45;;;;;;;7.20;4.30;;;;;;;21.58;49.90;99531.11;227503;1234;138742;-63
2022/10/16 13:59:04;;;;;;;9.40;5.90;;;;;;;21.54;49.99;99539.04;226780;1234;138963;-63
2022/10/16 14:04:09;;;;;;;7.10;3.90;;;;;;;21.51;50.00;99549.12;227743;1234;139036;-66
2022/10/16 14:09:24;;;;;;;11.20;7.10;;;;;;;21.46;50.01;99551.54;227427;1236;139390;-64
2022/10/16 14:14:35;;;;;;;4.90;3.70;;;;;;;21.44;50.26;99548.52;226751;1241;139345;-63
2022/10/16 14:19:38;;;;;;;40.90;33.80;;;;;;;21.44;50.28;99553.55;226699;1241;139613;-64
2022/10/16 14:24:41;;;;;;;8.90;4.00;;;;;;;21.46;50.37;99549.94;226633;1241;139437;-64
2022/10/16 14:29:44;;;;;;;4.70;3.70;;;;;;;21.45;50.44;99552.60;226820;1248;139477;-63
2022/10/16 14:34:53;;;;;;;6.60;4.30;;;;;;;21.41;50.47;99546.81;226749;1237;138949;-63
2022/10/16 14:39:56;;;;;;;5.50;3.80;;;;;;;21.38;50.42;99548.36;226700;1240;138865;-62
2022/10/16 14:45:02;;;;;;;5.60;4.10;;;;;;;21.36;50.68;99542.99;226710;1241;138863;-65
2022/10/16 14:50:14;;;;;;;6.30;4.10;;;;;;;21.36;50.78;99544.02;226753;1242;139032;-64
2022/10/16 14:55:18;;;;;;;5.50;4.20;;;;;;;21.36;50.89;99546.59;226649;1249;139867;-63
2022/10/16 15:00:24;;;;;;;8.70;4.50;;;;;;;21.37;50.87;99542.41;226619;1240;138860;-64
2022/10/16 15:05:29;;;;;;;10.60;7.20;;;;;;;21.35;51.19;99540.74;226514;1241;139199;-66
2022/10/16 15:10:38;;;;;;;6.30;4.40;;;;;;;21.35;51.31;99548.19;226801;1243;139051;-63
2022/10/16 15:15:46;;;;;;;4.50;4.00;;;;;;;21.33;51.09;99555.59;226474;1249;138776;-65
2022/10/16 15:20:50;;;;;;;7.00;4.80;;;;;;;21.30;51.03;99565.58;226497;1241;139152;-64
2022/10/16 15:25:55;;;;;;;6.70;4.40;;;;;;;21.28;51.05;99574.59;227575;1234;138482;-63
2022/10/16 15:30:58;;;;;;;6.30;4.00;;;;;;;21.26;50.83;99577.52;226904;1234;138701;-64
2022/10/16 15:36:02;;;;;;;12.60;4.80;;;;;;;21.21;51.03;99580.55;227516;1231;140304;-65
2022/10/16 15:41:06;;;;;;;9.70;4.90;;;;;;;21.16;51.01;99586.26;226746;1241;139164;-63
2022/10/16 15:46:14;;;;;;;7.10;4.50;;;;;;;21.12;51.13;99591.36;226440;1248;139296;-64
2022/10/16 15:51:18;;;;;;;6.40;4.60;;;;;;;21.05;51.16;99596.49;226462;1241;139292;-63
2022/10/16 15:56:22;;;;;;;9.30;4.30;;;;;;;20.96;51.23;99596.16;226720;1249;138640;-65
2022/10/16 16:01:25;;;;;;;6.50;4.50;;;;;;;20.77;51.53;99599.06;227719;1237;138809;-64
2022/10/16 16:06:29;;;;;;;8.40;4.80;;;;;;;20.54;51.84;99606.08;226813;1238;139705;-66
2022/10/16 16:11:37;;;;;;;7.00;4.30;;;;;;;20.32;52.28;99606.52;226821;1241;139416;-64
2022/10/16 16:16:41;;;;;;;11.70;5.00;;;;;;;20.14;52.53;99601.71;227595;1243;139512;-65
2022/10/16 16:21:44;;;;;;;43.30;30.10;;;;;;;19.97;52.96;99603.44;227533;1232;139041;-63
2022/10/16 16:26:47;;;;;;;15.80;10.10;;;;;;;19.84;53.30;99613.67;226847;1241;140183;-62
2022/10/16 16:31:50;;;;;;;16.00;10.30;;;;;;;19.68;53.54;99623.35;226749;1241;138967;-64
2022/10/16 16:36:53;;;;;;;16.60;6.90;;;;;;;19.52;53.72;99632.55;226640;1244;140307;-62
2022/10/16 16:41:58;;;;;;;12.10;6.10;;;;;;;19.38;54.23;99640.66;226628;1240;138275;-66
2022/10/16 16:47:03;;;;;;;14.90;7.00;;;;;;;19.25;54.39;99648.11;227547;1234;138945;-63
2022/10/16 16:52:06;;;;;;;16.30;6.30;;;;;;;19.13;54.79;99658.14;227595;1247;160437;-63
2022/10/16 16:57:09;;;;;;;22.40;7.20;;;;;;;19.02;55.06;99663.25;227409;1233;139056;-66
2022/10/16 17:02:12;;;;;;;17.60;6.90;;;;;;;18.92;55.39;99661.78;226763;1248;139271;-63
2022/10/16 17:07:15;;;;;;;26.30;7.60;;;;;;;18.82;55.60;99669.28;226724;1241;138491;-62
2022/10/16 17:12:21;;;;;;;19.10;7.70;;;;;;;18.73;55.94;99667.00;226666;1239;139873;-66
2022/10/16 17:17:24;;;;;;;17.90;7.30;;;;;;;18.68;56.17;99684.45;227461;1233;139060;-66
2022/10/16 17:22:28;;;;;;;13.30;7.20;;;;;;;18.64;56.35;99695.79;226689;1237;139114;-63
2022/10/16 17:27:33;;;;;;;13.80;6.60;;;;;;;18.65;56.67;99689.06;226624;1241;139539;-64
2022/10/16 17:32:36;;;;;;;10.80;6.70;;;;;;;18.78;56.65;99694.43;226729;1246;141155;-63
2022/10/16 17:37:40;;;;;;;27.30;19.60;;;;;;;18.98;56.69;99704.27;227617;1234;138937;-64
2022/10/16 17:42:43;;;;;;;14.00;7.60;;;;;;;19.06;56.44;99709.98;226676;1234;139722;-64
2022/10/16 17:47:46;;;;;;;12.60;7.50;;;;;;;19.00;56.15;99708.23;226592;1252;139277;-63
2022/10/16 17:52:49;;;;;;;12.80;7.30;;;;;;;18.90;55.98;99715.85;227543;1240;138884;-63
2022/10/16 17:57:52;;;;;;;17.40;7.30;;;;;;;18.78;56.12;99718.52;226806;1239;138777;-63
2022/10/16 18:02:56;;;;;;;16.20;7.70;;;;;;;18.65;56.12;99722.48;226753;1241;138720;-64
2022/10/16 18:07:59;;;;;;;12.90;7.80;;;;;;;18.53;56.42;99732.11;226728;1242;138879;-61
2022/10/16 18:13:02;;;;;;;15.50;8.60;;;;;;;18.44;56.38;99738.08;226715;1234;139106;-61
2022/10/16 18:18:05;;;;;;;15.20;8.20;;;;;;;18.34;56.53;99741.25;226831;1246;139662;-63
2022/10/16 18:23:08;;;;;;;14.70;8.70;;;;;;;18.28;56.59;99742.71;226756;1237;139448;-62
2022/10/16 18:28:11;;;;;;;12.50;8.30;;;;;;;18.18;56.74;99753.34;226751;1248;139351;-63
2022/10/16 18:33:14;;;;;;;15.70;9.00;;;;;;;18.06;56.97;99763.11;226754;1241;138747;-62
2022/10/16 18:38:17;;;;;;;11.70;8.30;;;;;;;18.00;56.88;99771.73;227552;1233;139249;-63
2022/10/16 18:43:20;;;;;;;30.40;22.40;;;;;;;18.10;57.47;99776.84;227489;1234;139268;-62
2022/10/16 18:48:23;;;;;;;14.20;8.40;;;;;;;18.32;57.34;99781.30;226637;1247;139127;-61
2022/10/16 18:53:26;;;;;;;14.90;8.50;;;;;;;18.48;57.10;99783.77;227369;1244;138873;-62
2022/10/16 18:58:30;;;;;;;15.70;8.60;;;;;;;18.57;56.61;99789.83;226669;1241;140191;-60
2022/10/16 19:03:34;;;;;;;12.00;8.00;;;;;;;18.53;56.33;99796.61;226715;1241;140337;-61
2022/10/16 19:08:37;;;;;;;11.60;8.70;;;;;;;18.42;56.41;99804.05;226686;1249;138926;-64
2022/10/16 19:13:42;;;;;;;12.40;8.50;;;;;;;18.27;56.27;99814.02;226564;1241;139308;-62
2022/10/16 19:18:49;;;;;;;15.30;8.70;;;;;;;18.10;56.37;99822.41;226549;1235;139081;-61
2022/10/16 19:23:55;;;;;;;14.80;9.80;;;;;;;17.97;56.71;99831.36;227551;1234;139052;-63
2022/10/16 19:29:01;;;;;;;14.40;9.60;;;;;;;17.86;56.87;99836.23;226626;1241;138996;-61
2022/10/16 19:34:05;;;;;;;15.20;9.30;;;;;;;17.72;56.92;99847.38;226543;1247;138706;-61
2022/10/16 19:39:24;;;;;;;17.10;10.10;;;;;;;17.61;57.17;99849.70;227365;1235;139291;-64
2022/10/16 19:44:36;;;;;;;15.50;8.80;;;;;;;17.64;57.42;99846.52;227440;1234;139098;-62
2022/10/16 19:49:39;;;;;;;11.60;8.00;;;;;;;17.63;57.43;99846.23;227541;1231;139958;-62
2022/10/16 19:54:42;;;;;;;13.40;9.20;;;;;;;17.58;57.59;99848.10;226729;1242;139283;-60
2022/10/16 19:59:45;;;;;;;16.80;10.30;;;;;;;17.53;57.95;99854.00;227622;1232;139057;-59
2022/10/16 20:04:48;;;;;;;16.90;10.80;;;;;;;17.60;58.15;99855.08;226710;1243;139304;-61
2022/10/16 20:09:51;;;;;;;18.00;9.50;;;;;;;17.59;58.02;99856.63;226755;1238;138858;-63
2022/10/16 20:14:55;;;;;;;18.00;10.30;;;;;;;17.50;57.99;99866.62;226662;1250;139266;-61
2022/10/16 20:19:57;;;;;;;15.90;10.40;;;;;;;17.36;57.86;99867.20;226788;1248;138839;-60
2022/10/16 20:25:05;;;;;;;20.00;11.40;;;;;;;17.35;58.55;99872.12;226855;1237;139614;-61
2022/10/16 20:30:17;;;;;;;16.20;10.50;;;;;;;17.40;58.58;99881.95;226728;1242;139710;-60
2022/10/16 20:35:20;;;;;;;13.20;9.90;;;;;;;17.28;58.34;99889.68;226752;1240;139759;-60
2022/10/16 20:40:26;;;;;;;15.40;10.40;;;;;;;17.14;58.44;99900.83;226475;1244;138991;-60
2022/10/16 20:45:29;;;;;;;15.80;10.50;;;;;;;16.98;58.55;99904.52;227576;1242;139233;-61
2022/10/16 20:50:33;;;;;;;15.00;10.50;;;;;;;16.82;58.85;99906.07;226907;1238;139407;-61
2022/10/16 20:55:36;;;;;;;18.80;10.90;;;;;;;16.76;59.27;99912.05;227764;1241;139873;-60
2022/10/16 21:00:39;;;;;;;16.70;10.60;;;;;;;16.95;59.94;99913.55;227816;1231;139021;-61
2022/10/16 21:05:42;;;;;;;18.80;10.40;;;;;;;17.05;59.60;99919.77;227823;1234;140090;-60
2022/10/16 21:10:45;;;;;;;19.30;11.30;;;;;;;16.98;59.48;99922.08;227004;1231;140509;-61
2022/10/16 21:15:48;;;;;;;18.30;11.70;;;;;;;16.84;59.19;99928.47;227047;1241;138938;-60
2022/10/16 21:20:51;;;;;;;16.80;11.80;;;;;;;16.68;59.17;99921.89;227029;1241;138993;-62
2022/10/16 21:25:54;;;;;;;16.60;11.20;;;;;;;16.60;59.46;99931.87;226968;1238;139082;-60
2022/10/16 21:30:57;;;;;;;17.30;12.20;;;;;;;16.49;59.51;99940.46;227006;1233;139160;-62
2022/10/16 21:36:00;;;;;;;18.00;12.20;;;;;;;16.36;59.61;99942.13;227053;1248;139002;-62
2022/10/16 21:41:15;;;;;;;18.30;11.90;;;;;;;16.23;59.48;99947.70;226986;1244;138875;-59
2022/10/16 21:46:21;;;;;;;17.10;11.80;;;;;;;16.10;59.74;99946.84;226995;1241;139065;-60
2022/10/16 21:51:32;;;;;;;18.30;11.50;;;;;;;15.99;59.91;99953.34;227127;1238;139966;-59
2022/10/16 21:56:35;;;;;;;17.10;11.30;;;;;;;15.93;59.98;99964.19;227851;1234;139728;-61
2022/10/16 22:01:39;;;;;;;16.60;12.40;;;;;;;15.89;60.30;99975.57;227738;1241;139513;-60
2022/10/16 22:06:42;;;;;;;18.80;12.80;;;;;;;15.86;60.58;99978.44;226918;1241;139635;-61
2022/10/16 22:11:45;;;;;;;20.30;13.30;;;;;;;15.82;60.42;99978.73;227022;1237;139524;-62
2022/10/16 22:16:49;;;;;;;17.10;12.30;;;;;;;15.74;60.51;99980.67;227864;1227;139255;-60
2022/10/16 22:21:56;;;;;;;22.30;13.00;;;;;;;15.66;60.71;99987.48;227853;1233;139601;-60
2022/10/16 22:26:59;;;;;;;20.30;13.20;;;;;;;15.58;60.86;99991.19;226882;1249;139375;-60
2022/10/16 22:32:02;;;;;;;22.30;13.20;;;;;;;15.48;60.77;99995.63;226628;1237;139986;-61
2022/10/16 22:37:04;;;;;;;22.00;13.90;;;;;;;15.41;60.92;99997.21;226841;1241;140105;-62
2022/10/16 22:42:07;;;;;;;21.40;13.90;;;;;;;15.34;61.10;99998.73;227700;1234;140607;-59
2022/10/16 22:47:10;;;;;;;19.90;11.50;;;;;;;15.33;61.31;100000.73;226733;1246;139783;-61
2022/10/16 22:52:13;;;;;;;16.30;11.10;;;;;;;15.36;61.37;100002.17;226814;1241;139613;-63
2022/10/16 22:57:16;;;;;;;20.50;12.60;;;;;;;15.36;61.45;100005.77;226842;1241;139568;-60
2022/10/16 23:02:20;;;;;;;19.50;13.00;;;;;;;15.36;61.60;100004.86;227588;1233;139791;-63
2022/10/16 23:07:23;;;;;;;20.60;13.00;;;;;;;15.31;61.69;100002.66;227642;1232;140490;-59
2022/10/16 23:12:29;;;;;;;16.50;11.40;;;;;;;15.30;61.88;99999.90;227639;1233;140234;-64